Time;durP1;ratioP1;P1;durP2;ratioP2;P2;SDS_P1;SDS_P2;PMS_P1;PMS_P2;Temp;Humidity;BMP_temperature;BMP_pressure;BME280_temperature;BME280_humidity;BME280_pressure;Samples;Min_cycle;Max_cycle;Signal;HPM_P1;HPM_P2
2022/11/30 00:01:35;;;;;;;;;;;;;;;10.71;nan;102477.22;5076959;28;19917;-32
2022/11/30 00:04:01;;;;;;;;;;;;;;;10.71;nan;102478.03;5074677;28;19966;-32
2022/11/30 00:06:26;;;;;;;;;;;;;;;10.70;nan;102478.25;5074767;28;20307;-32
2022/11/30 00:08:55;;;;;;;;;;;;;;;10.71;nan;102474.53;5077398;28;19920;-32
2022/11/30 00:11:22;;;;;;;;;;;;;;;10.68;nan;102480.31;5075539;28;19969;-32
2022/11/30 00:13:47;;;;;;;;;;;;;;;10.68;nan;102477.63;5075559;28;20409;-32
2022/11/30 00:16:13;;;;;;;;;;;;;;;10.64;nan;102482.59;5074421;28;19916;-32
2022/11/30 00:18:38;;;;;;;;;;;;;;;10.67;nan;102481.34;5075401;28;20276;-32
2022/11/30 00:21:07;;;;;;;;;;;;;;;10.66;nan;102485.06;5074309;28;19916;-33
2022/11/30 00:23:33;;;;;;;;;;;;;;;10.68;nan;102488.34;5077225;28;20327;-32
2022/11/30 00:26:00;;;;;;;;;;;;;;;10.66;nan;102485.88;5077189;28;20295;-32
2022/11/30 00:28:25;;;;;;;;;;;;;;;10.66;nan;102488.56;5075124;28;20283;-32
2022/11/30 00:31:01;;;;;;;;;;;;;;;10.68;nan;102486.50;5074534;28;19924;-32
2022/11/30 00:33:27;;;;;;;;;;;;;;;10.69;nan;102485.47;5075225;28;19919;-32
2022/11/30 00:35:56;;;;;;;;;;;;;;;10.66;nan;102485.06;5078911;28;19916;-33
2022/11/30 00:38:21;;;;;;;;;;;;;;;10.65;nan;102489.59;5075405;28;19920;-32
2022/11/30 00:40:47;;;;;;;;;;;;;;;10.67;nan;102482.16;5074869;28;19923;-32
2022/11/30 00:43:12;;;;;;;;;;;;;;;10.68;nan;102488.34;5074201;28;19923;-32
2022/11/30 00:45:37;;;;;;;;;;;;;;;10.67;nan;102486.72;5073917;28;19935;-31
2022/11/30 00:48:03;;;;;;;;;;;;;;;10.66;nan;102491.25;5074554;28;19917;-32
2022/11/30 00:50:28;;;;;;;;;;;;;;;10.64;nan;102487.94;5073618;28;19917;-32
2022/11/30 00:52:53;;;;;;;;;;;;;;;10.64;nan;102492.47;5074699;28;19916;-32
2022/11/30 00:55:19;;;;;;;;;;;;;;;10.66;nan;102495.78;5074243;28;19920;-32
2022/11/30 00:57:44;;;;;;;;;;;;;;;10.64;nan;102492.47;5074918;28;20018;-32
2022/11/30 01:00:10;;;;;;;;;;;;;;;10.63;nan;102496.19;5073919;28;20006;-32
2022/11/30 01:02:35;;;;;;;;;;;;;;;10.63;nan;102494.34;5073137;28;19975;-32
2022/11/30 01:05:00;;;;;;;;;;;;;;;10.62;nan;102491.88;5074151;28;19920;-32
2022/11/30 01:07:26;;;;;;;;;;;;;;;10.62;nan;102498.06;5074118;28;19927;-32
2022/11/30 01:09:51;;;;;;;;;;;;;;;10.58;nan;102499.47;5074108;28;19920;-32
2022/11/30 01:12:16;;;;;;;;;;;;;;;10.49;nan;102500.72;5075715;28;19931;-32
2022/11/30 01:14:42;;;;;;;;;;;;;;;10.51;nan;102498.66;5074627;28;19989;-32
2022/11/30 01:17:07;;;;;;;;;;;;;;;10.46;nan;102496.59;5073129;28;19916;-32
2022/11/30 01:19:32;;;;;;;;;;;;;;;10.48;nan;102497.22;5073880;28;19923;-32
2022/11/30 01:21:58;;;;;;;;;;;;;;;10.46;nan;102498.44;5072759;28;19923;-32
2022/11/30 01:24:23;;;;;;;;;;;;;;;10.44;nan;102498.66;5073518;28;21365;-32
2022/11/30 01:26:48;;;;;;;;;;;;;;;10.46;nan;102501.94;5072396;28;20130;-32
2022/11/30 01:29:14;;;;;;;;;;;;;;;10.49;nan;102503.38;5074401;28;20291;-32
2022/11/30 01:31:39;;;;;;;;;;;;;;;10.50;nan;102505.88;5073560;28;20011;-32
2022/11/30 01:34:04;;;;;;;;;;;;;;;10.47;nan;102508.97;5073841;28;19971;-32
2022/11/30 01:36:30;;;;;;;;;;;;;;;10.48;nan;102507.94;5074109;28;19924;-32
2022/11/30 01:38:56;;;;;;;;;;;;;;;10.47;nan;102508.13;5071166;28;19997;-33
2022/11/30 01:41:27;;;;;;;;;;;;;;;10.49;nan;102514.94;5074625;28;20671;-32
2022/11/30 01:43:54;;;;;;;;;;;;;;;10.50;nan;102508.53;5076977;28;19939;-32
2022/11/30 01:46:33;;;;;;;;;;;;;;;10.50;nan;102515.75;5074328;28;20065;-32
2022/11/30 01:49:07;;;;;;;;;;;;;;;10.51;nan;102515.56;5073278;28;19920;-32
2022/11/30 01:51:53;;;;;;;;;;;;;;;10.51;nan;102514.72;5074156;28;19916;-32
2022/11/30 01:54:21;;;;;;;;;;;;;;;10.47;nan;102522.34;5057423;28;20437;-32
2022/11/30 01:56:49;;;;;;;;;;;;;;;10.45;nan;102515.56;5076392;28;20010;-32
2022/11/30 01:59:15;;;;;;;;;;;;;;;10.46;nan;102512.66;5071638;28;19935;-32
2022/11/30 02:01:41;;;;;;;;;;;;;;;10.44;nan;102517.41;5073859;28;19920;-32
2022/11/30 02:04:17;;;;;;;;;;;;;;;10.42;nan;102511.44;5075106;28;20390;-32
2022/11/30 02:06:43;;;;;;;;;;;;;;;10.44;nan;102520.09;5073611;28;19920;-32
2022/11/30 02:09:08;;;;;;;;;;;;;;;10.45;nan;102516.38;5072566;28;20382;-32
2022/11/30 02:11:33;;;;;;;;;;;;;;;10.49;nan;102512.25;5073350;28;20319;-32
2022/11/30 02:14:02;;;;;;;;;;;;;;;10.51;nan;102512.88;5072199;28;19921;-32
2022/11/30 02:16:39;;;;;;;;;;;;;;;10.49;nan;102512.25;5072338;28;19919;-32
2022/11/30 02:19:21;;;;;;;;;;;;;;;10.50;nan;102513.91;5072140;28;19955;-32
2022/11/30 02:21:49;;;;;;;;;;;;;;;10.51;nan;102515.56;5071745;28;20390;-32
2022/11/30 02:24:15;;;;;;;;;;;;;;;10.49;nan;102512.25;5073971;28;19920;-32
2022/11/30 02:26:40;;;;;;;;;;;;;;;10.49;nan;102517.63;5073831;28;19927;-32
2022/11/30 02:29:06;;;;;;;;;;;;;;;10.43;nan;102507.72;5070893;28;19917;-32
2022/11/30 02:31:51;;;;;;;;;;;;;;;10.40;nan;102509.97;5073846;28;20384;-32
2022/11/30 02:34:19;;;;;;;;;;;;;;;10.37;nan;102505.00;5027697;28;19953;-32
2022/11/30 02:36:45;;;;;;;;;;;;;;;10.39;nan;102511.00;5072280;28;20451;-32
2022/11/30 02:39:11;;;;;;;;;;;;;;;10.40;nan;102500.06;5072036;28;19916;-32
2022/11/30 02:41:40;;;;;;;;;;;;;;;10.42;nan;102506.06;5073265;28;20074;-32
2022/11/30 02:44:06;;;;;;;;;;;;;;;10.38;nan;102507.50;5072721;28;19942;-33
2022/11/30 02:46:46;;;;;;;;;;;;;;;10.41;nan;102511.63;5072587;28;19921;-32
2022/11/30 02:49:20;;;;;;;;;;;;;;;10.38;nan;102502.13;5072181;28;20214;-32
2022/11/30 02:51:46;;;;;;;;;;;;;;;10.38;nan;102510.16;5070722;28;19920;-32
2022/11/30 02:54:12;;;;;;;;;;;;;;;10.39;nan;102514.50;5073547;28;20296;-32
2022/11/30 02:56:37;;;;;;;;;;;;;;;10.39;nan;102509.13;5072266;28;19928;-32
2022/11/30 02:59:03;;;;;;;;;;;;;;;10.37;nan;102510.38;5072218;28;19917;-32
2022/11/30 03:01:28;;;;;;;;;;;;;;;10.35;nan;102517.78;5073475;28;19917;-33
2022/11/30 03:03:54;;;;;;;;;;;;;;;10.35;nan;102521.31;5072609;28;19917;-32
2022/11/30 03:06:19;;;;;;;;;;;;;;;10.35;nan;102518.63;5070942;28;19920;-33
2022/11/30 03:08:44;;;;;;;;;;;;;;;10.37;nan;102515.72;5071954;28;20354;-32
2022/11/30 03:11:10;;;;;;;;;;;;;;;10.38;nan;102518.22;5072275;28;20280;-32
2022/11/30 03:13:35;;;;;;;;;;;;;;;10.39;nan;102516.34;5072229;28;19920;-32
2022/11/30 03:16:08;;;;;;;;;;;;;;;10.34;nan;102519.66;5072496;28;20271;-32
2022/11/30 03:18:33;;;;;;;;;;;;;;;10.35;nan;102518.63;5072705;28;20388;-32
2022/11/30 03:20:59;;;;;;;;;;;;;;;10.35;nan;102520.47;5071904;28;20224;-32
2022/11/30 03:23:24;;;;;;;;;;;;;;;10.33;nan;102517.19;5072413;28;19974;-33
2022/11/30 03:25:49;;;;;;;;;;;;;;;10.34;nan;102519.66;5071777;28;19927;-32
2022/11/30 03:28:15;;;;;;;;;;;;;;;10.34;nan;102524.19;5069961;28;19920;-32
2022/11/30 03:30:46;;;;;;;;;;;;;;;10.33;nan;102526.03;5078453;28;19943;-32
2022/11/30 03:33:12;;;;;;;;;;;;;;;10.33;nan;102531.41;5076543;28;19917;-32
2022/11/30 03:35:37;;;;;;;;;;;;;;;10.34;nan;102541.09;5072179;28;19955;-32
2022/11/30 03:38:02;;;;;;;;;;;;;;;10.35;nan;102534.69;5075918;28;19917;-32
2022/11/30 03:40:28;;;;;;;;;;;;;;;10.35;nan;102537.38;5073710;28;19920;-32
2022/11/30 03:42:53;;;;;;;;;;;;;;;10.35;nan;102540.06;5070286;28;19940;-32
2022/11/30 03:45:19;;;;;;;;;;;;;;;10.35;nan;102540.06;5072074;28;20016;-32
2022/11/30 03:47:44;;;;;;;;;;;;;;;10.35;nan;102533.88;5074513;28;19931;-32
2022/11/30 03:50:10;;;;;;;;;;;;;;;10.34;nan;102534.91;5071334;28;20027;-32
2022/11/30 03:52:35;;;;;;;;;;;;;;;10.33;nan;102544.78;5071875;28;19920;-32
2022/11/30 03:55:00;;;;;;;;;;;;;;;10.33;nan;102539.44;5070618;28;19921;-32
2022/11/30 03:57:26;;;;;;;;;;;;;;;10.30;nan;102534.50;5072322;28;20069;-32
2022/11/30 03:59:51;;;;;;;;;;;;;;;10.28;nan;102537.38;5071466;28;20017;-32
2022/11/30 04:02:16;;;;;;;;;;;;;;;10.29;nan;102552.41;5071887;28;20073;-32
2022/11/30 04:04:41;;;;;;;;;;;;;;;10.30;nan;102547.88;5071031;28;19989;-32
2022/11/30 04:07:07;;;;;;;;;;;;;;;10.27;nan;102551.78;5071095;28;19924;-32
2022/11/30 04:09:32;;;;;;;;;;;;;;;10.28;nan;102544.59;5072250;28;20402;-32
2022/11/30 04:11:57;;;;;;;;;;;;;;;10.27;nan;102542.94;5070317;28;20388;-32
2022/11/30 04:14:23;;;;;;;;;;;;;;;10.21;nan;102541.03;5072828;28;20445;-32
2022/11/30 04:16:48;;;;;;;;;;;;;;;10.15;nan;102547.19;5072372;28;20122;-33
2022/11/30 04:19:13;;;;;;;;;;;;;;;10.10;nan;102555.00;5070651;28;19931;-32
2022/11/30 04:21:39;;;;;;;;;;;;;;;10.12;nan;102548.41;5075174;28;20304;-32
2022/11/30 04:24:04;;;;;;;;;;;;;;;10.10;nan;102555.00;5073644;28;20417;-32
2022/11/30 04:26:30;;;;;;;;;;;;;;;10.08;nan;102559.75;5075693;28;19994;-32
2022/11/30 04:28:55;;;;;;;;;;;;;;;10.08;nan;102557.88;5073819;28;19951;-32
2022/11/30 04:31:20;;;;;;;;;;;;;;;10.08;nan;102549.03;5073061;28;19916;-32
2022/11/30 04:33:46;;;;;;;;;;;;;;;10.10;nan;102555.00;5075305;28;19924;-31
2022/11/30 04:36:19;;;;;;;;;;;;;;;10.11;nan;102552.13;5074895;28;20007;-32
2022/11/30 04:38:45;;;;;;;;;;;;;;;10.13;nan;102559.94;5075055;28;19927;-32
2022/11/30 04:41:10;;;;;;;;;;;;;;;10.13;nan;102559.94;5074384;28;19916;-32
2022/11/30 04:43:36;;;;;;;;;;;;;;;10.08;nan;102557.88;5073303;28;19916;-32
2022/11/30 04:46:01;;;;;;;;;;;;;;;10.07;nan;102561.59;5074862;28;19927;-32
2022/11/30 04:48:26;;;;;;;;;;;;;;;10.04;nan;102561.97;5074364;28;20034;-32
2022/11/30 04:50:52;;;;;;;;;;;;;;;10.05;nan;102568.16;5074423;28;19924;-32
2022/11/30 04:53:17;;;;;;;;;;;;;;;10.05;nan;102563.63;5075862;28;19931;-32
2022/11/30 04:55:42;;;;;;;;;;;;;;;10.04;nan;102566.50;5074577;28;19962;-32
2022/11/30 04:58:08;;;;;;;;;;;;;;;10.01;nan;102562.38;5071864;28;19924;-32
2022/11/30 05:00:34;;;;;;;;;;;;;;;10.03;nan;102568.34;5074749;28;19961;-32
2022/11/30 05:02:59;;;;;;;;;;;;;;;9.99;nan;102564.44;5073451;28;20395;-32
2022/11/30 05:05:24;;;;;;;;;;;;;;;9.93;nan;102566.06;5075028;28;20319;-33
2022/11/30 05:07:53;;;;;;;;;;;;;;;9.93;nan;102567.91;5076174;28;20000;-32
2022/11/30 05:10:18;;;;;;;;;;;;;;;9.98;nan;102571.63;5074875;28;19943;-32
2022/11/30 05:12:44;;;;;;;;;;;;;;;10.02;nan;102573.91;5074120;28;20623;-32
2022/11/30 05:15:09;;;;;;;;;;;;;;;10.02;nan;102574.72;5074719;28;20322;-32
2022/11/30 05:17:35;;;;;;;;;;;;;;;10.05;nan;102568.97;5073171;28;19959;-32
2022/11/30 05:20:08;;;;;;;;;;;;;;;10.04;nan;102578.03;5073097;28;20382;-32
2022/11/30 05:22:34;;;;;;;;;;;;;;;10.06;nan;102576.00;5077555;28;19917;-32
2022/11/30 05:24:59;;;;;;;;;;;;;;;10.08;nan;102578.47;5073114;28;20384;-32
2022/11/30 05:27:25;;;;;;;;;;;;;;;10.11;nan;102578.06;5074582;28;19971;-32
2022/11/30 05:29:50;;;;;;;;;;;;;;;10.12;nan;102585.91;5078212;28;21075;-32
2022/11/30 05:32:16;;;;;;;;;;;;;;;10.11;nan;102591.47;5073733;28;20027;-32
2022/11/30 05:34:41;;;;;;;;;;;;;;;10.11;nan;102588.78;5072292;28;20407;-31
2022/11/30 05:37:06;;;;;;;;;;;;;;;10.11;nan;102586.13;5072827;28;20300;-32
2022/11/30 05:39:32;;;;;;;;;;;;;;;10.05;nan;102582.34;5073606;28;20186;-32
2022/11/30 05:41:57;;;;;;;;;;;;;;;10.04;nan;102593.28;5072427;28;19994;-33
2022/11/30 05:44:23;;;;;;;;;;;;;;;10.04;nan;102594.09;5072654;28;20284;-32
2022/11/30 05:46:49;;;;;;;;;;;;;;;10.04;nan;102594.09;5073715;28;19920;-32
2022/11/30 05:49:14;;;;;;;;;;;;;;;9.93;nan;102595.50;5074116;28;20261;-32
2022/11/30 05:51:39;;;;;;;;;;;;;;;9.89;nan;102593.44;5073774;28;19924;-33
2022/11/30 05:54:05;;;;;;;;;;;;;;;9.91;nan;102610.97;5076536;28;19921;-33
2022/11/30 05:56:30;;;;;;;;;;;;;;;9.88;nan;102605.19;5073096;28;19916;-32
2022/11/30 05:58:56;;;;;;;;;;;;;;;9.85;nan;102606.38;5072497;28;19920;-32
2022/11/30 06:01:23;;;;;;;;;;;;;;;9.86;nan;102609.88;5074013;28;19965;-32
2022/11/30 06:03:48;;;;;;;;;;;;;;;9.84;nan;102602.03;5076518;28;19920;-32
2022/11/30 06:06:14;;;;;;;;;;;;;;;9.89;nan;102613.00;5074595;28;20421;-32
2022/11/30 06:08:39;;;;;;;;;;;;;;;9.93;nan;102613.44;5073373;28;19943;-32
2022/11/30 06:11:05;;;;;;;;;;;;;;;9.90;nan;102614.66;5071114;28;19962;-33
2022/11/30 06:13:31;;;;;;;;;;;;;;;9.95;nan;102622.91;5075736;28;19920;-33
2022/11/30 06:16:04;;;;;;;;;;;;;;;9.93;nan;102619.59;5075019;28;19967;-33
2022/11/30 06:18:29;;;;;;;;;;;;;;;9.89;nan;102625.56;5077713;28;19920;-32
2022/11/30 06:20:58;;;;;;;;;;;;;;;9.82;nan;102625.50;5071230;28;19916;-32
2022/11/30 06:23:23;;;;;;;;;;;;;;;9.78;nan;102621.59;5074522;28;20014;-32
2022/11/30 06:25:49;;;;;;;;;;;;;;;9.80;nan;102629.41;5071960;28;20023;-32
2022/11/30 06:28:14;;;;;;;;;;;;;;;9.78;nan;102629.63;5072701;28;19927;-32
2022/11/30 06:30:40;;;;;;;;;;;;;;;9.82;nan;102628.19;5074115;28;19916;-32
2022/11/30 06:33:05;;;;;;;;;;;;;;;9.86;nan;102629.44;5069888;28;19920;-32
2022/11/30 06:35:31;;;;;;;;;;;;;;;9.91;nan;102637.72;5074591;28;20069;-32
2022/11/30 06:37:56;;;;;;;;;;;;;;;9.88;nan;102637.31;5071424;28;19927;-32
2022/11/30 06:40:21;;;;;;;;;;;;;;;9.84;nan;102642.19;5074293;28;20476;-32
2022/11/30 06:42:47;;;;;;;;;;;;;;;9.83;nan;102643.22;5072260;28;19924;-32
2022/11/30 06:45:12;;;;;;;;;;;;;;;9.82;nan;102641.56;5071750;28;19920;-32
2022/11/30 06:47:37;;;;;;;;;;;;;;;9.79;nan;102649.19;5071806;28;19916;-32
2022/11/30 06:50:03;;;;;;;;;;;;;;;9.77;nan;102651.22;5071695;28;19959;-32
2022/11/30 06:52:30;;;;;;;;;;;;;;;9.81;nan;102653.31;5071703;28;19942;-32
2022/11/30 06:54:55;;;;;;;;;;;;;;;9.85;nan;102653.72;5072026;28;20061;-32
2022/11/30 06:57:24;;;;;;;;;;;;;;;9.84;nan;102652.09;5069714;28;19959;-32
2022/11/30 06:59:50;;;;;;;;;;;;;;;9.88;nan;102658.72;5076081;28;19922;-32
2022/11/30 07:02:15;;;;;;;;;;;;;;;9.92;nan;102654.63;5072294;28;19916;-31
2022/11/30 07:04:40;;;;;;;;;;;;;;;9.94;nan;102661.44;5073047;28;20034;-32
2022/11/30 07:07:06;;;;;;;;;;;;;;;9.90;nan;102659.34;5072775;28;19923;-32
2022/11/30 07:09:32;;;;;;;;;;;;;;;9.85;nan;102659.91;5073256;28;19925;-32
2022/11/30 07:11:57;;;;;;;;;;;;;;;9.85;nan;102664.44;5070580;28;19920;-33
2022/11/30 07:14:24;;;;;;;;;;;;;;;9.86;nan;102661.56;5071179;28;19993;-31
2022/11/30 07:16:49;;;;;;;;;;;;;;;9.88;nan;102670.25;5073258;28;19916;-32
2022/11/30 07:19:15;;;;;;;;;;;;;;;9.89;nan;102669.22;5073970;28;20010;-32
2022/11/30 07:21:40;;;;;;;;;;;;;;;9.88;nan;102675.63;5069109;28;19967;-31
2022/11/30 07:26:49;;;;;;;;;;;;;;;9.91;nan;102675.22;5072461;28;20318;-32
2022/11/30 07:29:15;;;;;;;;;;;;;;;9.93;nan;102677.69;5072029;28;19917;-32
2022/11/30 07:31:40;;;;;;;;;;;;;;;9.90;nan;102667.38;5072316;28;20306;-32
2022/11/30 07:34:07;;;;;;;;;;;;;;;9.86;nan;102676.81;5072796;28;19920;-33
2022/11/30 07:36:33;;;;;;;;;;;;;;;9.84;nan;102678.84;5074476;28;19916;-32
2022/11/30 07:38:59;;;;;;;;;;;;;;;9.86;nan;102682.97;5072149;28;19930;-32
2022/11/30 07:41:24;;;;;;;;;;;;;;;9.90;nan;102694.16;5072191;28;19956;-32
2022/11/30 07:43:50;;;;;;;;;;;;;;;9.85;nan;102692.03;5071244;28;19963;-32
2022/11/30 07:46:15;;;;;;;;;;;;;;;9.85;nan;102702.75;5072630;28;19917;-32
2022/11/30 07:48:41;;;;;;;;;;;;;;;9.85;nan;102699.25;5072667;28;19917;-32
2022/11/30 07:51:09;;;;;;;;;;;;;;;9.80;nan;102689.13;5072185;28;19917;-32
2022/11/30 07:53:34;;;;;;;;;;;;;;;9.83;nan;102698.63;5076055;28;20518;-31
2022/11/30 07:56:06;;;;;;;;;;;;;;;9.86;nan;102698.22;5077024;28;19920;-32
2022/11/30 07:58:32;;;;;;;;;;;;;;;9.85;nan;102697.41;5074339;28;19971;-32
2022/11/30 08:01:06;;;;;;;;;;;;;;;9.79;nan;102695.50;5075731;28;19963;-32
2022/11/30 08:03:31;;;;;;;;;;;;;;;9.78;nan;102696.53;5078504;28;20457;-32
2022/11/30 08:06:01;;;;;;;;;;;;;;;9.77;nan;102689.53;5075545;28;19932;-32
2022/11/30 08:08:30;;;;;;;;;;;;;;;9.81;nan;102696.13;5074373;28;19963;-32
2022/11/30 08:10:56;;;;;;;;;;;;;;;9.81;nan;102704.16;5076490;28;19916;-32
2022/11/30 08:13:21;;;;;;;;;;;;;;;9.74;nan;102692.59;5076907;28;20425;-31
2022/11/30 08:15:46;;;;;;;;;;;;;;;9.76;nan;102698.59;5075069;28;20449;-31
2022/11/30 08:18:11;;;;;;;;;;;;;;;9.79;nan;102703.53;5075470;28;19978;-31
2022/11/30 08:20:37;;;;;;;;;;;;;;;9.83;nan;102693.25;5072589;28;19948;-31
2022/11/30 08:23:02;;;;;;;;;;;;;;;9.88;nan;102699.72;5077721;28;19916;-31
2022/11/30 08:25:28;;;;;;;;;;;;;;;9.88;nan;102709.59;5075774;28;20457;-31
2022/11/30 08:27:53;;;;;;;;;;;;;;;9.83;nan;102703.97;5074770;28;19916;-31
2022/11/30 08:30:18;;;;;;;;;;;;;;;9.81;nan;102712.22;5077176;28;19959;-31
2022/11/30 08:32:43;;;;;;;;;;;;;;;9.81;nan;102709.53;5076078;28;20295;-31
2022/11/30 08:35:09;;;;;;;;;;;;;;;9.87;nan;102713.25;5073383;28;19920;-31
2022/11/30 08:37:36;;;;;;;;;;;;;;;9.91;nan;102715.38;5075148;28;19956;-31
2022/11/30 08:40:01;;;;;;;;;;;;;;;9.96;nan;102718.28;5074233;28;19973;-31
2022/11/30 08:42:26;;;;;;;;;;;;;;;10.00;nan;102719.53;5074479;28;19928;-31
2022/11/30 08:44:52;;;;;;;;;;;;;;;10.00;nan;102722.22;5075032;28;19925;-31
2022/11/30 08:47:17;;;;;;;;;;;;;;;10.02;nan;102723.88;5076701;28;20592;-31
2022/11/30 08:49:42;;;;;;;;;;;;;;;10.03;nan;102728.22;5075933;28;19962;-31
2022/11/30 08:52:08;;;;;;;;;;;;;;;10.00;nan;102732.09;5074835;28;19916;-31
2022/11/30 08:54:33;;;;;;;;;;;;;;;10.01;nan;102731.09;5075340;28;19920;-31
2022/11/30 08:56:58;;;;;;;;;;;;;;;9.97;nan;102733.34;5073335;28;20952;-31
2022/11/30 08:59:24;;;;;;;;;;;;;;;9.94;nan;102733.72;5075187;28;20437;-31
2022/11/30 09:01:49;;;;;;;;;;;;;;;9.99;nan;102735.81;5074850;28;20386;-31
2022/11/30 09:04:14;;;;;;;;;;;;;;;10.02;nan;102740.78;5074275;28;20140;-31
2022/11/30 09:06:40;;;;;;;;;;;;;;;10.08;nan;102749.91;5074681;28;19920;-31
2022/11/30 09:09:06;;;;;;;;;;;;;;;10.14;nan;102749.09;5075822;28;19998;-33
2022/11/30 09:11:32;;;;;;;;;;;;;;;10.19;nan;102741.28;5072962;28;19916;-32
2022/11/30 09:13:58;;;;;;;;;;;;;;;10.24;nan;102744.25;5074517;28;19971;-32
2022/11/30 09:16:24;;;;;;;;;;;;;;;10.26;nan;102742.22;5077530;28;19917;-32
2022/11/30 09:18:50;;;;;;;;;;;;;;;10.31;nan;102733.56;5073713;28;19923;-32
2022/11/30 09:21:17;;;;;;;;;;;;;;;10.37;nan;102741.63;5074214;28;19917;-32
2022/11/30 09:23:43;;;;;;;;;;;;;;;10.37;nan;102748.84;5055360;28;20142;-33
2022/11/30 09:26:10;;;;;;;;;;;;;;;10.36;nan;102737.31;5074878;28;20016;-31
2022/11/30 09:28:35;;;;;;;;;;;;;;;10.36;nan;102742.66;5073176;28;19942;-31
2022/11/30 09:31:02;;;;;;;;;;;;;;;10.27;nan;102744.69;5075293;28;20421;-31
2022/11/30 09:33:27;;;;;;;;;;;;;;;10.32;nan;102743.25;5076370;28;19931;-31
2022/11/30 09:35:56;;;;;;;;;;;;;;;10.35;nan;102751.72;5077947;28;19928;-31
2022/11/30 09:38:22;;;;;;;;;;;;;;;10.38;nan;102751.31;5069756;28;19982;-31
2022/11/30 09:40:49;;;;;;;;;;;;;;;10.43;nan;102742.72;5073652;28;19924;-31
2022/11/30 09:43:14;;;;;;;;;;;;;;;10.49;nan;102742.75;5074056;28;19920;-31
2022/11/30 09:45:44;;;;;;;;;;;;;;;10.53;nan;102746.66;5072689;28;20209;-31
2022/11/30 09:48:12;;;;;;;;;;;;;;;10.59;nan;102743.22;5072855;28;19920;-31
2022/11/30 09:50:40;;;;;;;;;;;;;;;10.63;nan;102740.13;5074204;28;19965;-31
2022/11/30 09:53:10;;;;;;;;;;;;;;;10.62;nan;102743.84;5072155;28;19936;-31
2022/11/30 09:55:38;;;;;;;;;;;;;;;10.66;nan;102745.09;5073979;28;19927;-31
2022/11/30 09:58:05;;;;;;;;;;;;;;;10.63;nan;102742.81;5073264;28;20292;-31
2022/11/30 10:00:32;;;;;;;;;;;;;;;10.65;nan;102738.91;5073772;28;20015;-31
2022/11/30 10:03:00;;;;;;;;;;;;;;;10.69;nan;102737.47;5074199;28;19924;-31
2022/11/30 10:05:28;;;;;;;;;;;;;;;10.73;nan;102741.38;5074646;28;19920;-31
2022/11/30 10:08:12;;;;;;;;;;;;;;;10.79;nan;102731.75;5071111;28;19916;-31
2022/11/30 10:10:55;;;;;;;;;;;;;;;10.76;nan;102732.94;5075275;28;19918;-31
2022/11/30 10:13:27;;;;;;;;;;;;;;;10.79;nan;102732.56;5072535;28;19955;-31
2022/11/30 10:16:11;;;;;;;;;;;;;;;10.82;nan;102728.66;5075623;28;20403;-31
2022/11/30 10:18:47;;;;;;;;;;;;;;;10.79;nan;102732.56;5073460;28;19946;-31
2022/11/30 10:21:13;;;;;;;;;;;;;;;10.84;nan;102729.28;5076399;28;19966;-31
2022/11/30 10:23:57;;;;;;;;;;;;;;;10.87;nan;102729.69;5072444;28;19975;-31
2022/11/30 10:26:34;;;;;;;;;;;;;;;10.88;nan;102725.16;5072325;28;20463;-31
2022/11/30 10:29:11;;;;;;;;;;;;;;;10.94;nan;102728.88;5073996;28;19991;-31
2022/11/30 10:31:38;;;;;;;;;;;;;;;10.96;nan;102724.16;5077115;28;19917;-31
2022/11/30 10:34:23;;;;;;;;;;;;;;;11.03;nan;102727.69;5074339;28;19924;-31
2022/11/30 10:36:54;;;;;;;;;;;;;;;11.13;nan;102723.59;5070084;28;20038;-31
2022/11/30 10:39:29;;;;;;;;;;;;;;;11.16;nan;102720.50;5070650;28;20342;-31
2022/11/30 10:42:21;;;;;;;;;;;;;;;11.14;nan;102713.69;5072149;28;20433;-31
2022/11/30 10:44:57;;;;;;;;;;;;;;;11.22;nan;102718.00;5041503;28;19927;-31
2022/11/30 10:47:24;;;;;;;;;;;;;;;11.24;nan;102714.09;5074830;28;19991;-31
2022/11/30 10:49:51;;;;;;;;;;;;;;;11.24;nan;102707.91;5073845;28;19919;-31
2022/11/30 10:52:25;;;;;;;;;;;;;;;11.29;nan;102714.28;5074525;28;19963;-31
2022/11/30 10:54:52;;;;;;;;;;;;;;;11.27;nan;102711.00;5075013;28;20026;-31
2022/11/30 10:57:17;;;;;;;;;;;;;;;11.35;nan;102718.03;5072759;28;20325;-31
2022/11/30 10:59:51;;;;;;;;;;;;;;;11.38;nan;102721.13;5076080;28;19920;-31
2022/11/30 11:02:31;;;;;;;;;;;;;;;11.38;nan;102713.06;5071084;28;19946;-31
2022/11/30 11:05:08;;;;;;;;;;;;;;;11.47;nan;102722.56;5073869;28;19954;-31
2022/11/30 11:07:43;;;;;;;;;;;;;;;11.41;nan;102719.88;5070327;28;20618;-33
2022/11/30 11:10:11;;;;;;;;;;;;;;;11.39;nan;102720.09;5076934;28;20167;-32
2022/11/30 11:12:37;;;;;;;;;;;;;;;11.41;nan;102709.16;5070956;28;20439;-33
2022/11/30 11:15:15;;;;;;;;;;;;;;;11.43;nan;102717.81;5073804;28;20089;-33
2022/11/30 11:17:41;;;;;;;;;;;;;;;11.44;nan;102709.56;5069234;28;19920;-33
2022/11/30 11:20:26;;;;;;;;;;;;;;;11.45;nan;102719.25;5072981;28;19931;-33
2022/11/30 11:22:51;;;;;;;;;;;;;;;11.49;nan;102722.38;5070450;28;19942;-33
2022/11/30 11:25:21;;;;;;;;;;;;;;;11.54;nan;102725.28;5073456;28;19965;-33
2022/11/30 11:27:51;;;;;;;;;;;;;;;11.55;nan;102713.50;5075452;28;19916;-33
2022/11/30 11:30:26;;;;;;;;;;;;;;;11.57;nan;102711.44;5078451;28;19920;-32
2022/11/30 11:33:06;;;;;;;;;;;;;;;11.58;nan;102710.41;5071294;28;20331;-33
2022/11/30 11:35:45;;;;;;;;;;;;;;;11.58;nan;102718.44;5081364;28;19973;-32
2022/11/30 11:38:29;;;;;;;;;;;;;;;11.58;nan;102714.94;5075730;28;20092;-33
2022/11/30 11:40:56;;;;;;;;;;;;;;;11.55;nan;102718.88;5076924;28;20448;-32
2022/11/30 11:43:22;;;;;;;;;;;;;;;11.57;nan;102721.34;5072436;28;19927;-32
2022/11/30 11:45:52;;;;;;;;;;;;;;;11.55;nan;102724.25;5077540;28;19920;-32
2022/11/30 11:48:24;;;;;;;;;;;;;;;11.49;nan;102730.44;5075523;28;20152;-33
2022/11/30 11:51:00;;;;;;;;;;;;;;;11.50;nan;102724.03;5078131;28;19920;-32
2022/11/30 11:53:44;;;;;;;;;;;;;;;11.55;nan;102726.94;5070914;28;19916;-32
2022/11/30 11:56:16;;;;;;;;;;;;;;;11.61;nan;102736.81;5080032;28;20339;-33
2022/11/30 11:58:50;;;;;;;;;;;;;;;11.61;nan;102734.13;5076830;28;20411;-33
2022/11/30 12:01:20;;;;;;;;;;;;;;;11.62;nan;102741.16;5077357;28;19916;-32
2022/11/30 12:04:04;;;;;;;;;;;;;;;11.60;nan;102735.19;5074022;28;19924;-32
2022/11/30 12:06:31;;;;;;;;;;;;;;;11.55;nan;102736.84;5076032;28;19924;-33
2022/11/30 12:09:03;;;;;;;;;;;;;;;11.56;nan;102742.00;5074532;28;19973;-33
2022/11/30 12:11:45;;;;;;;;;;;;;;;11.54;nan;102745.94;5074142;28;19943;-32
2022/11/30 12:14:12;;;;;;;;;;;;;;;11.55;nan;102748.41;5073679;28;20378;-32
2022/11/30 12:16:49;;;;;;;;;;;;;;;11.45;nan;102748.78;5078779;28;20352;-32
2022/11/30 12:19:19;;;;;;;;;;;;;;;11.45;nan;102747.97;5076166;28;19920;-33
2022/11/30 12:21:44;;;;;;;;;;;;;;;11.49;nan;102747.38;5076164;28;19916;-32
2022/11/30 12:24:45;;;;;;;;;;;;;;;11.50;nan;102750.88;5077676;28;19994;-34
2022/11/30 12:27:20;;;;;;;;;;;;;;;11.50;nan;102750.88;4982168;28;19932;-33
2022/11/30 12:29:50;;;;;;;;;;;;;;;11.48;nan;102748.38;5062346;28;20042;-33
2022/11/30 12:32:22;;;;;;;;;;;;;;;11.43;nan;102741.97;5074178;28;19923;-33
2022/11/30 12:35:06;;;;;;;;;;;;;;;11.42;nan;102753.75;5077903;28;20312;-33
2022/11/30 12:38:10;;;;;;;;;;;;;;;11.33;nan;102755.81;5075331;28;19955;-32
2022/11/30 12:40:41;;;;;;;;;;;;;;;11.24;nan;102759.69;4982719;28;19924;-33
2022/11/30 12:43:20;;;;;;;;;;;;;;;11.19;nan;102771.06;4982976;28;20217;-33
2022/11/30 12:45:46;;;;;;;;;;;;;;;11.10;nan;102769.56;5040129;28;19923;-33
2022/11/30 12:48:31;;;;;;;;;;;;;;;11.09;nan;102775.13;5073415;28;19920;-33
2022/11/30 12:51:08;;;;;;;;;;;;;;;11.03;nan;102775.97;5077642;28;19920;-32
2022/11/30 12:53:39;;;;;;;;;;;;;;;10.88;nan;102768.06;5078830;28;20288;-32
2022/11/30 12:56:09;;;;;;;;;;;;;;;10.79;nan;102774.63;5076461;28;19961;-32
2022/11/30 12:58:37;;;;;;;;;;;;;;;10.72;nan;102774.59;5073843;28;19966;-32
2022/11/30 13:01:28;;;;;;;;;;;;;;;10.68;nan;102772.53;5071909;28;19940;-32
2022/11/30 13:04:16;;;;;;;;;;;;;;;10.67;nan;102781.59;5073494;28;19924;-32
2022/11/30 13:06:54;;;;;;;;;;;;;;;10.69;nan;102775.00;5061155;28;20168;-33
2022/11/30 13:09:30;;;;;;;;;;;;;;;10.70;nan;102782.00;5079176;28;19921;-33